New Stanton, Pennsylvania
Current Conditions -  °F | °C
As of 5:47 PM on Saturday 25 Oct 2014 (Local Time) from KLBE Reporting Station
Few Clouds Few Clouds  
Wind Chill: 64°   Ceiling: Unl
Heat Index: 64°   Visibility: 20mi
Dew Point: 52°   Wind: 12mph
Humidity: 64%   Direction: 240°WSW
Pressure: 29.76"   Gusts: 23mph
Location:  40.22°N, 79.61°W
Report Text: KLBE 252147Z 24010G20KT 20SM FEW045 18/11 A2976
Loading
Personal Weather Stations






























Interactive Weather Map
Tropical Storm Tracking
New forecast layout! Learn more

10-Day Weather Forecast

Advertisements
Track Severe Weather on mobile